Time;durP1;ratioP1;P1;durP2;ratioP2;P2;SDS_P1;SDS_P2;PMS_P1;PMS_P2;Temp;Humidity;BMP_temperature;BMP_pressure;BME280_temperature;BME280_humidity;BME280_pressure;Samples;Min_cycle;Max_cycle;Signal;HPM_P1;HPM_P2
2021/11/06 00:02:07;;;;;;;15.85;13.23;;;8.40;99.90;;;;;;5038129;28;20436;-82
2021/11/06 00:04:33;;;;;;;8.90;8.00;;;8.40;99.90;;;;;;5036015;28;20033;-82
2021/11/06 00:06:59;;;;;;;11.52;7.20;;;8.30;99.90;;;;;;5035779;28;20029;-81
2021/11/06 00:09:24;;;;;;;8.90;7.80;;;8.20;99.90;;;;;;5034651;28;20045;-81
2021/11/06 00:11:50;;;;;;;11.60;10.18;;;8.80;99.90;;;;;;5031637;28;20505;-82
2021/11/06 00:14:15;;;;;;;11.65;9.35;;;8.90;99.90;;;;;;5048850;28;20033;-82
2021/11/06 00:16:41;;;;;;;10.65;8.18;;;8.80;99.90;;;;;;5035802;28;20020;-81
2021/11/06 00:19:07;;;;;;;10.68;7.70;;;8.80;99.90;;;;;;5036348;28;20474;-81
2021/11/06 00:21:32;;;;;;;9.23;7.72;;;8.60;99.90;;;;;;5035551;28;20045;-82
2021/11/06 00:23:58;;;;;;;8.65;7.03;;;8.10;99.90;;;;;;5033339;28;20520;-82
2021/11/06 00:26:23;;;;;;;9.45;7.38;;;8.10;99.90;;;;;;5033050;28;20099;-81
2021/11/06 00:28:49;;;;;;;8.55;7.55;;;8.10;99.90;;;;;;5037243;28;20413;-81
2021/11/06 00:31:14;;;;;;;9.85;8.15;;;8.10;99.90;;;;;;5035251;28;20025;-82
2021/11/06 00:33:40;;;;;;;9.98;7.70;;;8.50;99.90;;;;;;5033635;28;20553;-81
2021/11/06 00:36:06;;;;;;;9.57;7.75;;;8.10;99.90;;;;;;5033081;28;20025;-81
2021/11/06 00:38:31;;;;;;;11.00;8.57;;;8.60;99.90;;;;;;5032042;28;20044;-81
2021/11/06 00:40:57;;;;;;;10.38;8.57;;;7.90;99.90;;;;;;5037462;28;20401;-82
2021/11/06 00:43:22;;;;;;;12.77;9.55;;;7.90;99.90;;;;;;5034937;28;20037;-81
2021/11/06 00:45:48;;;;;;;11.73;9.32;;;8.20;99.90;;;;;;5034701;28;20021;-82
2021/11/06 00:48:14;;;;;;;18.02;14.52;;;7.90;99.90;;;;;;5034989;28;20453;-82
2021/11/06 00:50:39;;;;;;;14.63;12.38;;;8.00;99.90;;;;;;5030644;28;20466;-81
2021/11/06 00:53:05;;;;;;;21.10;17.90;;;8.00;99.90;;;;;;5037272;28;20112;-81
2021/11/06 00:55:30;;;;;;;17.98;14.43;;;8.10;99.90;;;;;;5034751;28;20104;-81
2021/11/06 00:57:56;;;;;;;14.18;10.20;;;8.10;99.90;;;;;;5034602;28;20121;-82
2021/11/06 01:00:22;;;;;;;11.13;9.48;;;8.20;99.90;;;;;;5034786;28;20392;-82
2021/11/06 01:02:49;;;;;;;12.40;8.82;;;8.40;99.90;;;;;;5031414;28;20026;-81
2021/11/06 01:05:15;;;;;;;10.05;8.23;;;8.10;99.90;;;;;;5034923;28;20033;-81
2021/11/06 01:07:42;;;;;;;11.00;9.57;;;8.20;99.90;;;;;;5035777;28;20512;-81
2021/11/06 01:10:11;;;;;;;12.63;9.52;;;8.40;99.90;;;;;;5034662;28;20516;-82
2021/11/06 01:12:36;;;;;;;11.02;9.75;;;8.20;99.90;;;;;;5033314;28;20025;-82
2021/11/06 01:15:04;;;;;;;10.50;8.77;;;8.10;99.90;;;;;;5031877;28;20035;-81
2021/11/06 01:17:29;;;;;;;9.98;8.30;;;8.20;99.90;;;;;;5031369;28;20036;-81
2021/11/06 01:19:55;;;;;;;11.43;8.63;;;8.30;99.90;;;;;;5036503;28;20112;-81
2021/11/06 01:22:21;;;;;;;9.52;8.23;;;8.60;99.90;;;;;;5033388;28;20513;-82
2021/11/06 01:24:46;;;;;;;10.10;8.50;;;8.40;99.90;;;;;;5034673;28;20444;-82
2021/11/06 01:27:12;;;;;;;11.70;8.73;;;7.80;99.90;;;;;;5034216;28;20045;-81
2021/11/06 01:29:38;;;;;;;11.73;9.40;;;7.80;99.90;;;;;;5029639;28;20410;-82
2021/11/06 01:32:06;;;;;;;10.80;8.98;;;8.60;99.90;;;;;;5035689;28;20025;-81
2021/11/06 01:34:33;;;;;;;10.77;8.70;;;8.00;99.90;;;;;;5034389;28;20544;-81
2021/11/06 01:36:59;;;;;;;9.93;8.35;;;7.90;99.90;;;;;;5033874;28;20056;-81
2021/11/06 01:39:24;;;;;;;12.57;9.55;;;8.30;99.90;;;;;;5034144;28;20110;-82
2021/11/06 01:41:50;;;;;;;10.38;8.70;;;8.00;99.90;;;;;;5030855;28;20025;-82
2021/11/06 01:44:16;;;;;;;10.57;9.05;;;8.00;99.90;;;;;;5033671;28;20500;-82
2021/11/06 01:46:41;;;;;;;13.13;8.93;;;8.00;99.90;;;;;;5034993;28;20025;-81
2021/11/06 01:49:07;;;;;;;13.88;9.35;;;8.10;99.90;;;;;;5034034;28;20038;-82
2021/11/06 01:51:33;;;;;;;10.02;8.68;;;8.10;99.90;;;;;;5032640;28;20497;-81
2021/11/06 01:53:58;;;;;;;12.30;9.30;;;8.40;99.90;;;;;;5031056;28;20105;-81
2021/11/06 01:56:24;;;;;;;11.25;9.60;;;8.50;99.90;;;;;;5031642;28;20032;-82
2021/11/06 01:58:50;;;;;;;11.35;9.63;;;7.80;99.90;;;;;;5035942;28;20109;-81
2021/11/06 02:01:16;;;;;;;11.57;9.30;;;7.80;99.90;;;;;;5034138;28;20101;-82
2021/11/06 02:03:41;;;;;;;13.07;9.38;;;7.80;99.90;;;;;;5033981;28;20475;-81
2021/11/06 02:06:07;;;;;;;11.80;9.70;;;8.30;99.90;;;;;;5033230;28;20032;-81
2021/11/06 02:08:33;;;;;;;12.07;9.90;;;7.80;99.90;;;;;;5030696;28;22494;-82
2021/11/06 02:10:59;;;;;;;11.63;9.18;;;7.80;99.90;;;;;;5035830;28;20536;-82
2021/11/06 02:13:24;;;;;;;11.27;9.75;;;7.80;99.90;;;;;;5028292;28;20478;-81
2021/11/06 02:15:50;;;;;;;12.10;9.98;;;7.70;99.90;;;;;;5022839;28;20430;-81
2021/11/06 02:18:16;;;;;;;12.18;9.73;;;7.70;99.90;;;;;;5045184;28;20037;-82
2021/11/06 02:20:44;;;;;;;12.45;9.52;;;7.70;99.90;;;;;;5029694;28;20486;-82
2021/11/06 02:23:10;;;;;;;12.80;10.30;;;7.80;99.90;;;;;;5035533;28;20032;-81
2021/11/06 02:25:36;;;;;;;13.70;10.63;;;8.30;99.90;;;;;;5032194;28;20045;-82
2021/11/06 02:28:01;;;;;;;12.52;9.80;;;7.90;99.90;;;;;;5033552;28;20038;-82
2021/11/06 02:30:27;;;;;;;12.68;10.05;;;7.90;99.90;;;;;;5033114;28;20550;-81
2021/11/06 02:32:53;;;;;;;10.98;9.20;;;8.10;99.90;;;;;;5030936;28;20041;-82
2021/11/06 02:35:19;;;;;;;12.07;9.45;;;8.10;99.90;;;;;;5037116;28;20052;-81
2021/11/06 02:37:44;;;;;;;12.77;9.68;;;8.50;99.90;;;;;;5038726;28;20766;-82
2021/11/06 02:40:11;;;;;;;12.73;9.90;;;7.80;99.90;;;;;;5037990;28;20036;-82
2021/11/06 02:42:37;;;;;;;11.07;9.35;;;7.80;99.90;;;;;;5037345;28;20033;-82
2021/11/06 02:45:04;;;;;;;11.60;9.32;;;7.80;99.90;;;;;;5035889;28;20029;-82
2021/11/06 02:47:30;;;;;;;11.23;9.55;;;7.90;99.90;;;;;;5034235;28;20017;-82
2021/11/06 02:49:56;;;;;;;11.77;9.50;;;8.30;99.90;;;;;;5039629;28;20039;-81
2021/11/06 02:52:22;;;;;;;10.55;8.88;;;7.80;99.90;;;;;;5037240;28;20104;-82
2021/11/06 02:54:48;;;;;;;10.48;8.60;;;7.80;99.90;;;;;;5037287;28;20413;-82
2021/11/06 02:57:13;;;;;;;11.90;10.20;;;8.10;99.90;;;;;;5036869;28;20021;-82
2021/11/06 02:59:39;;;;;;;11.45;9.25;;;7.70;99.90;;;;;;5033355;28;20545;-81
2021/11/06 03:02:05;;;;;;;11.20;8.73;;;7.70;99.90;;;;;;5039498;28;20022;-82
2021/11/06 03:04:38;;;;;;;10.85;8.63;;;7.90;99.90;;;;;;5036906;28;20522;-81
2021/11/06 03:07:05;;;;;;;11.60;9.02;;;7.60;99.90;;;;;;5036836;28;20071;-81
2021/11/06 03:09:32;;;;;;;11.45;9.27;;;7.60;99.90;;;;;;5035276;28;20041;-82
2021/11/06 03:11:58;;;;;;;12.07;9.93;;;7.60;99.90;;;;;;5033510;28;20105;-81
2021/11/06 03:14:25;;;;;;;11.30;8.85;;;7.90;99.90;;;;;;5034986;28;20029;-81
2021/11/06 03:16:51;;;;;;;12.00;8.73;;;8.00;99.90;;;;;;5050159;28;20040;-82
2021/11/06 03:19:17;;;;;;;10.82;8.93;;;8.30;99.90;;;;;;5039361;28;20033;-81
2021/11/06 03:21:42;;;;;;;10.48;8.75;;;8.20;99.90;;;;;;5036791;28;20164;-82
2021/11/06 03:24:08;;;;;;;10.73;9.05;;;8.30;99.90;;;;;;5036368;28;20393;-81
2021/11/06 03:26:34;;;;;;;10.98;8.95;;;7.70;99.90;;;;;;5032443;28;20073;-81
2021/11/06 03:29:00;;;;;;;11.80;8.68;;;8.20;99.90;;;;;;5037303;28;20041;-82
2021/11/06 03:31:26;;;;;;;10.05;8.90;;;7.70;99.90;;;;;;5036779;28;20022;-81
2021/11/06 03:33:52;;;;;;;11.02;8.85;;;7.70;99.90;;;;;;5036359;28;20079;-81
2021/11/06 03:36:18;;;;;;;10.95;8.80;;;7.90;99.90;;;;;;5036941;28;20025;-81
2021/11/06 03:38:43;;;;;;;10.73;9.05;;;7.60;99.90;;;;;;5032215;28;20038;-81
2021/11/06 03:41:09;;;;;;;10.48;8.18;;;7.60;99.90;;;;;;5037870;28;20436;-82
2021/11/06 03:43:35;;;;;;;10.52;7.70;;;7.60;99.90;;;;;;5035495;28;20107;-82
2021/11/06 03:46:01;;;;;;;9.52;8.05;;;7.60;99.90;;;;;;5036201;28;20482;-81
2021/11/06 03:48:28;;;;;;;10.43;7.47;;;7.40;99.90;;;;;;5034539;28;20045;-81
2021/11/06 03:50:53;;;;;;;10.38;7.70;;;7.40;99.90;;;;;;5031888;28;20022;-81
2021/11/06 03:53:19;;;;;;;9.10;8.10;;;7.30;99.90;;;;;;5035308;28;20037;-82
2021/11/06 03:55:45;;;;;;;10.77;8.40;;;7.40;99.90;;;;;;5037221;28;20030;-81
2021/11/06 03:58:10;;;;;;;8.57;7.45;;;7.30;99.90;;;;;;5036100;28;20194;-82
2021/11/06 04:00:36;;;;;;;9.68;8.10;;;7.30;99.90;;;;;;5036476;28;20398;-81
2021/11/06 04:03:02;;;;;;;8.77;7.28;;;7.70;99.90;;;;;;5035287;28;20068;-81
2021/11/06 04:05:28;;;;;;;9.27;7.68;;;7.30;99.90;;;;;;5032798;28;20053;-81
2021/11/06 04:07:53;;;;;;;10.07;8.07;;;7.90;99.90;;;;;;5037400;28;20025;-81
2021/11/06 04:10:19;;;;;;;9.75;7.68;;;7.40;99.90;;;;;;5036109;28;20040;-82
2021/11/06 04:12:45;;;;;;;10.93;7.80;;;7.70;99.90;;;;;;5035481;28;20029;-81
2021/11/06 04:15:11;;;;;;;10.88;8.05;;;7.50;99.90;;;;;;5035471;28;20057;-82
2021/11/06 04:17:37;;;;;;;10.02;7.90;;;7.50;99.90;;;;;;5032064;28;20055;-82
2021/11/06 04:20:05;;;;;;;10.15;8.10;;;7.60;99.90;;;;;;5038053;28;20022;-81
2021/11/06 04:22:31;;;;;;;10.75;7.75;;;7.50;99.90;;;;;;5035279;28;20038;-81
2021/11/06 04:24:57;;;;;;;9.70;7.75;;;7.60;99.90;;;;;;5036136;28;20025;-82
2021/11/06 04:27:22;;;;;;;10.05;8.32;;;7.40;99.90;;;;;;5034029;28;20102;-82
2021/11/06 04:29:48;;;;;;;10.10;8.45;;;7.40;99.90;;;;;;5030637;28;20518;-82
2021/11/06 04:32:14;;;;;;;10.10;8.00;;;7.90;99.90;;;;;;5036650;28;20029;-82
2021/11/06 04:34:39;;;;;;;10.52;7.85;;;7.30;99.90;;;;;;5035979;28;20130;-81
2021/11/06 04:37:05;;;;;;;9.65;7.80;;;7.60;99.90;;;;;;5034863;28;20028;-82
2021/11/06 04:39:31;;;;;;;10.18;8.00;;;7.60;99.90;;;;;;5035380;28;20033;-81
2021/11/06 04:41:57;;;;;;;10.10;8.15;;;7.40;99.90;;;;;;5032764;28;20037;-82
2021/11/06 04:44:22;;;;;;;9.95;7.60;;;7.40;99.90;;;;;;5033845;28;20017;-82
2021/11/06 04:46:48;;;;;;;12.25;8.30;;;7.50;99.90;;;;;;5036849;28;20029;-82
2021/11/06 04:49:14;;;;;;;9.35;7.80;;;8.00;99.90;;;;;;5034746;28;20398;-82
2021/11/06 04:51:39;;;;;;;9.15;7.82;;;7.50;99.90;;;;;;5034528;28;20486;-81
2021/11/06 04:54:05;;;;;;;10.20;7.95;;;8.10;99.90;;;;;;5034130;28;20057;-82
2021/11/06 04:56:30;;;;;;;9.80;7.45;;;7.60;99.90;;;;;;5031311;28;20063;-81
2021/11/06 04:58:56;;;;;;;9.77;7.95;;;7.50;99.90;;;;;;5037594;28;20482;-82
2021/11/06 05:01:22;;;;;;;10.55;8.65;;;7.40;99.90;;;;;;5034403;28;20139;-81
2021/11/06 05:03:47;;;;;;;10.70;8.15;;;7.30;99.90;;;;;;5034444;28;20113;-81
2021/11/06 05:06:13;;;;;;;11.63;8.60;;;7.40;99.90;;;;;;5033169;28;20052;-81
2021/11/06 05:08:39;;;;;;;9.45;8.15;;;7.50;99.90;;;;;;5029139;28;20441;-81
2021/11/06 05:11:05;;;;;;;10.70;8.57;;;7.50;99.90;;;;;;5036597;28;20021;-81
2021/11/06 05:13:30;;;;;;;10.05;8.90;;;7.50;99.90;;;;;;5034874;28;20055;-82
2021/11/06 05:15:58;;;;;;;10.77;8.93;;;7.40;99.90;;;;;;5034668;28;20068;-82
2021/11/06 05:18:24;;;;;;;11.88;8.98;;;8.00;99.90;;;;;;5034742;28;20024;-82
2021/11/06 05:20:50;;;;;;;10.98;8.60;;;7.40;99.90;;;;;;5031616;28;20482;-82
2021/11/06 05:23:16;;;;;;;11.63;9.00;;;7.40;99.90;;;;;;5033979;28;20057;-82
2021/11/06 05:25:44;;;;;;;10.77;8.80;;;7.50;99.90;;;;;;5035663;28;20045;-82
2021/11/06 05:28:10;;;;;;;11.38;9.40;;;7.50;99.90;;;;;;5033337;28;20080;-81
2021/11/06 05:30:36;;;;;;;10.07;8.43;;;7.40;99.90;;;;;;5034106;28;20029;-82
2021/11/06 05:33:02;;;;;;;10.05;8.45;;;7.40;99.90;;;;;;5032629;28;20025;-82
2021/11/06 05:35:28;;;;;;;11.70;9.50;;;7.80;99.90;;;;;;5031797;28;20029;-82
2021/11/06 05:37:54;;;;;;;11.70;9.25;;;7.70;99.90;;;;;;5036454;28;20113;-82
2021/11/06 05:40:20;;;;;;;11.20;8.48;;;7.40;99.90;;;;;;5034267;28;20553;-81
2021/11/06 05:42:46;;;;;;;13.05;9.13;;;7.40;99.90;;;;;;5034387;28;20092;-82
2021/11/06 05:45:11;;;;;;;13.20;9.07;;;7.40;99.90;;;;;;5032467;28;20108;-82
2021/11/06 05:47:37;;;;;;;13.43;10.00;;;8.00;99.90;;;;;;5028734;28;20021;-80
2021/11/06 05:50:09;;;;;;;11.52;9.68;;;8.00;99.90;;;;;;5035695;28;20088;-82
2021/11/06 05:52:36;;;;;;;11.95;9.43;;;7.40;99.90;;;;;;5031864;28;20113;-81
2021/11/06 05:55:08;;;;;;;13.57;10.38;;;7.30;99.90;;;;;;5034613;28;20079;-81
2021/11/06 05:57:35;;;;;;;12.45;9.73;;;7.30;99.90;;;;;;5033676;28;20026;-82
2021/11/06 06:00:11;;;;;;;14.25;10.27;;;7.50;99.90;;;;;;5031159;28;20072;-81
2021/11/06 06:02:38;;;;;;;11.05;9.07;;;7.10;99.90;;;;;;5029802;28;20117;-81
2021/11/06 06:05:06;;;;;;;13.07;9.82;;;7.20;99.90;;;;;;5035320;28;20025;-82
2021/11/06 06:07:32;;;;;;;11.95;9.40;;;7.20;99.90;;;;;;5034654;28;20030;-81
2021/11/06 06:09:57;;;;;;;13.30;9.40;;;7.10;99.90;;;;;;5038249;28;20029;-81
2021/11/06 06:12:23;;;;;;;12.38;9.68;;;7.00;99.90;;;;;;5037556;28;20101;-80
2021/11/06 06:14:51;;;;;;;12.73;9.57;;;7.20;99.90;;;;;;5034772;28;20022;-84
2021/11/06 06:17:16;;;;;;;12.68;9.38;;;7.10;99.90;;;;;;5038446;28;20018;-82
2021/11/06 06:19:42;;;;;;;11.63;9.55;;;7.50;99.90;;;;;;5033875;28;20491;-83
2021/11/06 06:22:07;;;;;;;12.02;10.45;;;7.20;99.90;;;;;;5032595;28;20025;-82
2021/11/06 06:24:33;;;;;;;12.18;10.15;;;7.50;99.90;;;;;;5036057;28;20038;-82
2021/11/06 06:27:00;;;;;;;13.02;9.70;;;7.70;99.90;;;;;;5034327;28;20120;-81
2021/11/06 06:29:26;;;;;;;11.93;9.10;;;7.30;99.90;;;;;;5035021;28;20029;-83
2021/11/06 06:31:51;;;;;;;13.80;10.18;;;7.20;99.90;;;;;;5039638;28;20470;-84
2021/11/06 06:34:17;;;;;;;14.20;10.30;;;7.70;99.90;;;;;;5037726;28;20041;-84
2021/11/06 06:36:42;;;;;;;12.30;9.70;;;7.30;99.90;;;;;;5037790;28;20425;-84
2021/11/06 06:39:08;;;;;;;12.23;9.32;;;7.30;99.90;;;;;;5036983;28;20035;-84
2021/11/06 06:41:34;;;;;;;12.02;9.02;;;7.30;99.90;;;;;;5034235;28;20040;-83
2021/11/06 06:43:59;;;;;;;10.85;9.07;;;7.30;99.90;;;;;;5039251;28;20025;-84
2021/11/06 06:46:25;;;;;;;13.25;9.20;;;7.60;99.90;;;;;;5036991;28;20028;-85
2021/11/06 06:48:50;;;;;;;12.13;9.95;;;7.70;99.90;;;;;;5037420;28;20087;-85
2021/11/06 06:51:19;;;;;;;12.23;10.02;;;7.10;99.90;;;;;;5037552;28;20431;-84
2021/11/06 06:53:45;;;;;;;11.45;9.07;;;6.90;99.90;;;;;;5033737;28;20035;-85
2021/11/06 06:56:11;;;;;;;12.25;9.27;;;6.90;99.90;;;;;;5038622;28;20018;-85
2021/11/06 06:58:37;;;;;;;12.68;9.27;;;7.00;99.90;;;;;;5036520;28;20132;-85
2021/11/06 07:01:03;;;;;;;12.65;9.80;;;7.00;99.90;;;;;;5036875;28;20584;-85
2021/11/06 07:03:29;;;;;;;15.02;9.52;;;7.10;99.90;;;;;;5035434;28;20086;-84
2021/11/06 07:05:54;;;;;;;13.43;9.40;;;7.10;99.90;;;;;;5033056;28;20433;-85
2021/11/06 07:08:21;;;;;;;13.18;9.70;;;7.60;99.90;;;;;;5036480;28;20124;-85
2021/11/06 07:10:47;;;;;;;11.55;8.75;;;7.60;99.90;;;;;;5038621;28;20037;-85
2021/11/06 07:13:19;;;;;;;15.05;10.45;;;7.00;99.90;;;;;;5037134;28;20030;-84
2021/11/06 07:15:44;;;;;;;12.68;9.30;;;7.10;99.90;;;;;;5037209;28;20549;-85
2021/11/06 07:18:10;;;;;;;12.98;10.20;;;7.70;99.90;;;;;;5036431;28;20148;-85
2021/11/06 07:20:35;;;;;;;14.07;10.80;;;7.70;99.90;;;;;;5032855;28;20053;-85
2021/11/06 07:23:01;;;;;;;12.40;10.02;;;7.20;99.90;;;;;;5038826;28;20120;-85
2021/11/06 07:25:27;;;;;;;11.98;9.15;;;7.10;99.90;;;;;;5036600;28;20037;-85
2021/11/06 07:27:52;;;;;;;12.98;10.02;;;7.20;99.90;;;;;;5036588;28;20036;-85
2021/11/06 07:30:18;;;;;;;14.88;10.35;;;7.30;99.90;;;;;;5036473;28;20032;-85
2021/11/06 07:32:44;;;;;;;11.88;9.65;;;7.30;99.90;;;;;;5033167;28;20157;-85
2021/11/06 07:35:09;;;;;;;12.07;9.57;;;7.30;99.90;;;;;;5039626;28;20037;-85
2021/11/06 07:37:37;;;;;;;12.73;9.77;;;7.30;99.90;;;;;;5035783;28;20412;-85
2021/11/06 07:40:07;;;;;;;13.93;11.90;;;7.40;99.90;;;;;;5037164;28;20044;-85
2021/11/06 07:42:33;;;;;;;14.00;11.50;;;7.40;99.90;;;;;;5035137;28;20047;-85
2021/11/06 07:44:59;;;;;;;11.25;9.30;;;8.00;99.90;;;;;;5033175;28;20066;-85
2021/11/06 07:47:24;;;;;;;11.57;8.35;;;7.80;99.90;;;;;;5033886;28;20493;-84
2021/11/06 07:49:50;;;;;;;10.65;8.93;;;7.50;99.90;;;;;;5038379;28;20152;-85
2021/11/06 07:52:16;;;;;;;16.38;13.85;;;7.60;99.90;;;;;;5037050;28;20032;-84
2021/11/06 07:54:41;;;;;;;13.40;10.57;;;7.60;99.90;;;;;;5036022;28;20025;-84
2021/11/06 07:57:08;;;;;;;10.35;8.80;;;7.60;99.90;;;;;;5035610;28;20519;-84
2021/11/06 07:59:34;;;;;;;10.65;8.68;;;7.70;99.90;;;;;;5032136;28;20494;-85
2021/11/06 08:02:00;;;;;;;10.98;8.43;;;8.50;99.90;;;;;;5038118;28;20029;-84
2021/11/06 08:04:26;;;;;;;12.52;8.40;;;8.00;99.90;;;;;;5031478;28;20555;-85
2021/11/06 08:06:52;;;;;;;11.32;9.50;;;8.00;99.90;;;;;;5027931;28;20033;-85
2021/11/06 08:09:18;;;;;;;11.30;8.82;;;8.00;99.90;;;;;;5035830;28;20057;-85
2021/11/06 08:11:43;;;;;;;11.60;8.80;;;8.00;99.90;;;;;;5031923;28;20540;-85
2021/11/06 08:14:09;;;;;;;12.43;9.18;;;8.10;99.90;;;;;;5037945;28;20119;-85
2021/11/06 08:16:35;;;;;;;19.13;16.00;;;8.00;99.90;;;;;;5035095;28;20021;-85
2021/11/06 08:19:01;;;;;;;23.17;20.77;;;8.80;99.90;;;;;;5036170;28;20052;-85
2021/11/06 08:21:26;;;;;;;15.25;13.40;;;8.20;99.90;;;;;;5034385;28;20154;-84
2021/11/06 08:23:52;;;;;;;11.70;9.75;;;8.60;99.90;;;;;;5031270;28;20034;-85
2021/11/06 08:26:18;;;;;;;12.43;8.75;;;7.90;99.90;;;;;;5034858;28;20049;-85
2021/11/06 08:28:43;;;;;;;27.88;20.35;;;8.40;99.90;;;;;;5036487;28;20045;-84
2021/11/06 08:31:09;;;;;;;11.95;9.00;;;7.90;99.90;;;;;;5034773;28;20018;-85
2021/11/06 08:33:35;;;;;;;13.45;10.38;;;8.20;99.90;;;;;;5035521;28;20053;-84
2021/11/06 08:36:02;;;;;;;12.52;10.70;;;7.60;99.90;;;;;;5033571;28;20037;-84
2021/11/06 08:38:29;;;;;;;13.45;12.02;;;8.20;99.90;;;;;;5032589;28;20486;-85
2021/11/06 08:40:54;;;;;;;11.00;8.88;;;7.60;99.90;;;;;;5037559;28;20109;-85
2021/11/06 08:43:20;;;;;;;13.18;9.77;;;7.50;99.90;;;;;;5034604;28;20470;-85
2021/11/06 08:45:46;;;;;;;18.48;14.23;;;7.70;99.90;;;;;;5035377;28;20060;-85
2021/11/06 08:48:13;;;;;;;12.48;10.35;;;7.80;99.90;;;;;;5035424;28;20406;-85
2021/11/06 08:50:40;;;;;;;9.82;8.35;;;8.40;99.90;;;;;;5014913;28;20025;-85
2021/11/06 08:53:06;;;;;;;13.25;10.27;;;7.70;99.90;;;;;;5037328;28;20025;-85
2021/11/06 08:55:32;;;;;;;12.40;9.23;;;7.70;99.90;;;;;;5034871;28;20052;-85
2021/11/06 08:57:58;;;;;;;11.35;8.25;;;8.30;99.90;;;;;;5034954;28;20550;-85
2021/11/06 09:00:34;;;;;;;11.05;9.20;;;8.20;99.90;;;;;;5034177;28;20078;-85
2021/11/06 09:03:07;;;;;;;11.10;8.88;;;8.30;99.90;;;;;;5031753;28;20393;-86
2021/11/06 09:05:33;;;;;;;11.73;9.85;;;7.90;99.90;;;;;;5031755;28;20042;-85
2021/11/06 09:08:00;;;;;;;12.18;9.13;;;8.00;99.90;;;;;;5036386;28;20120;-84
2021/11/06 09:10:26;;;;;;;13.18;9.35;;;8.00;99.90;;;;;;5034536;28;20079;-85
2021/11/06 09:12:52;;;;;;;11.00;8.63;;;7.90;99.90;;;;;;5034904;28;20482;-85
2021/11/06 09:15:18;;;;;;;12.85;8.45;;;8.00;99.90;;;;;;5035172;28;20124;-85
2021/11/06 09:17:44;;;;;;;11.18;8.68;;;8.00;99.90;;;;;;5030312;28;20021;-85
2021/11/06 09:20:10;;;;;;;11.27;8.73;;;8.70;99.90;;;;;;5036093;28;20022;-85
2021/11/06 09:22:37;;;;;;;11.07;8.48;;;8.20;99.90;;;;;;5034412;28;20032;-85
2021/11/06 09:25:04;;;;;;;9.57;8.07;;;8.90;99.90;;;;;;5034185;28;20056;-86
2021/11/06 09:27:30;;;;;;;11.10;9.05;;;8.40;99.90;;;;;;5034534;28;20056;-85
2021/11/06 09:29:56;;;;;;;12.38;9.02;;;8.90;99.90;;;;;;5032359;28;20033;-85
2021/11/06 09:32:22;;;;;;;11.05;8.82;;;8.40;99.90;;;;;;5033334;28;20021;-85
2021/11/06 09:34:48;;;;;;;10.65;8.55;;;8.30;99.90;;;;;;5036044;28;20036;-85
2021/11/06 09:37:14;;;;;;;10.93;8.38;;;8.50;99.90;;;;;;5034417;28;20601;-85
2021/11/06 09:39:40;;;;;;;12.07;8.55;;;8.40;99.90;;;;;;5033627;28;20116;-85
2021/11/06 09:42:06;;;;;;;12.18;8.98;;;9.30;99.90;;;;;;5030734;28;20044;-84
2021/11/06 09:44:35;;;;;;;9.90;7.95;;;8.60;99.90;;;;;;5030653;28;20045;-85
2021/11/06 09:47:08;;;;;;;11.85;9.05;;;9.10;99.90;;;;;;5036595;28;20026;-85
2021/11/06 09:49:34;;;;;;;10.43;8.63;;;8.50;99.90;;;;;;5032280;28;20060;-85
2021/11/06 09:51:59;;;;;;;11.77;9.00;;;8.50;99.90;;;;;;5034383;28;20022;-85
2021/11/06 09:54:25;;;;;;;15.18;11.77;;;8.80;99.90;;;;;;5033671;28;20029;-85
2021/11/06 09:56:51;;;;;;;12.68;10.23;;;8.70;99.90;;;;;;5030449;28;20029;-85
2021/11/06 09:59:16;;;;;;;10.65;8.95;;;9.10;99.90;;;;;;5034655;28;20029;-86
2021/11/06 10:01:42;;;;;;;12.75;9.00;;;9.10;99.90;;;;;;5034548;28;20095;-85
2021/11/06 10:04:08;;;;;;;11.95;8.80;;;8.50;99.90;;;;;;5033528;28;20033;-85
2021/11/06 10:06:36;;;;;;;13.38;9.32;;;9.00;99.90;;;;;;5033970;28;20035;-85
2021/11/06 10:09:08;;;;;;;12.98;9.30;;;9.00;99.90;;;;;;5032308;28;20508;-86
2021/11/06 10:11:34;;;;;;;13.20;9.38;;;9.00;99.90;;;;;;5029676;28;20018;-85
2021/11/06 10:14:05;;;;;;;12.35;10.05;;;8.90;99.90;;;;;;5035619;28;20109;-85
2021/11/06 10:16:39;;;;;;;11.80;9.50;;;8.30;99.90;;;;;;5033752;28;20496;-85
2021/11/06 10:19:15;;;;;;;11.60;9.23;;;8.50;99.90;;;;;;5032604;28;20088;-85
2021/11/06 10:21:44;;;;;;;12.68;9.77;;;8.60;99.90;;;;;;5032454;28;20097;-85
2021/11/06 10:24:11;;;;;;;12.02;9.70;;;8.70;99.90;;;;;;5033254;28;20029;-85
2021/11/06 10:26:37;;;;;;;12.65;9.80;;;8.80;99.90;;;;;;5029089;28;20045;-85
2021/11/06 10:29:06;;;;;;;12.77;9.93;;;9.40;99.90;;;;;;5035365;28;20107;-85
2021/11/06 10:31:33;;;;;;;12.82;9.48;;;9.40;99.90;;;;;;5033510;28;20484;-85
2021/11/06 10:34:10;;;;;;;12.18;9.68;;;9.30;99.90;;;;;;5033236;28;20055;-85
2021/11/06 10:36:36;;;;;;;11.13;8.73;;;8.70;99.90;;;;;;5034064;28;20022;-85
2021/11/06 10:39:11;;;;;;;11.40;9.20;;;8.60;99.90;;;;;;5031735;28;20040;-83
2021/11/06 10:41:41;;;;;;;14.55;9.13;;;8.70;99.90;;;;;;5028873;28;20026;-83
2021/11/06 10:44:07;;;;;;;11.10;8.85;;;8.80;99.90;;;;;;5035367;28;20021;-83
2021/11/06 10:46:34;;;;;;;12.02;9.38;;;8.70;99.90;;;;;;5033206;28;20370;-84
2021/11/06 10:49:04;;;;;;;12.68;10.25;;;9.20;99.90;;;;;;5033588;28;20037;-83
2021/11/06 10:51:30;;;;;;;13.70;10.23;;;8.60;99.90;;;;;;5032883;28;20036;-85
2021/11/06 10:54:01;;;;;;;12.68;9.95;;;8.70;99.90;;;;;;5032265;28;20104;-84
2021/11/06 10:56:54;;;;;;;12.63;10.63;;;9.20;99.90;;;;;;5035207;28;20030;-86
2021/11/06 10:59:22;;;;;;;12.10;9.73;;;8.60;99.90;;;;;;5045126;28;20086;-85
2021/11/06 11:01:53;;;;;;;14.82;10.68;;;8.80;99.90;;;;;;5038148;28;20021;-86
2021/11/06 11:04:20;;;;;;;12.98;10.07;;;9.20;99.90;;;;;;5036550;28;20116;-84
2021/11/06 11:06:53;;;;;;;12.10;9.95;;;9.40;99.90;;;;;;5036699;28;20014;-83
2021/11/06 11:09:37;;;;;;;14.63;10.02;;;9.00;99.90;;;;;;5036448;28;20043;-85
2021/11/06 11:12:13;;;;;;;12.52;9.90;;;9.00;99.90;;;;;;5034869;28;20520;-85
2021/11/06 11:14:55;;;;;;;12.90;10.38;;;8.90;99.90;;;;;;5032208;28;20026;-85
2021/11/06 11:17:43;;;;;;;12.82;9.73;;;9.00;99.90;;;;;;5045990;28;20099;-82
2021/11/06 11:20:27;;;;;;;12.35;9.80;;;9.00;99.90;;;;;;5038166;28;20087;-82
2021/11/06 11:23:14;;;;;;;11.60;9.13;;;9.50;99.90;;;;;;5036361;28;20099;-90
2021/11/06 11:25:42;;;;;;;12.85;9.30;;;9.10;99.90;;;;;;5035299;28;20076;-86
2021/11/06 11:28:10;;;;;;;12.38;9.68;;;9.20;99.90;;;;;;5036890;28;20037;-92
2021/11/06 11:30:36;;;;;;;11.00;9.15;;;9.20;99.90;;;;;;5036450;28;20509;-85
2021/11/06 11:33:02;;;;;;;12.32;9.20;;;9.50;99.90;;;;;;5034361;28;20028;-83
2021/11/06 11:35:28;;;;;;;12.80;10.15;;;9.20;99.90;;;;;;5033770;28;20057;-89
2021/11/06 11:37:56;;;;;;;11.32;9.15;;;9.30;99.90;;;;;;5036313;28;20553;-85
2021/11/06 11:40:25;;;;;;;12.55;9.13;;;9.80;99.90;;;;;;5035186;28;20425;-87
2021/11/06 11:43:14;;;;;;;11.18;9.20;;;9.50;99.90;;;;;;5035829;28;20056;-86
2021/11/06 11:45:45;;;;;;;10.30;8.40;;;9.50;99.90;;;;;;5035931;28;20565;-85
2021/11/06 11:48:13;;;;;;;10.55;8.65;;;9.80;99.90;;;;;;5035875;28;20032;-85
2021/11/06 11:50:42;;;;;;;9.77;8.45;;;9.60;99.90;;;;;;5032017;28;20036;-85
2021/11/06 11:53:12;;;;;;;9.77;7.97;;;9.60;99.90;;;;;;5044421;28;20021;-89
2021/11/06 11:55:44;;;;;;;10.93;8.95;;;9.80;99.90;;;;;;5030594;28;20034;-85
2021/11/06 11:58:15;;;;;;;13.45;9.48;;;9.90;99.90;;;;;;5027890;28;20481;-87
2021/11/06 12:00:51;;;;;;;11.52;9.30;;;9.40;99.90;;;;;;5035141;28;20033;-85
2021/11/06 12:03:39;;;;;;;11.23;9.43;;;9.30;99.90;;;;;;5035859;28;20106;-83
2021/11/06 12:06:23;;;;;;;11.15;8.90;;;9.40;99.90;;;;;;5033913;28;20102;-87
2021/11/06 12:08:50;;;;;;;11.77;8.52;;;9.50;99.90;;;;;;5016106;28;20034;-85
2021/11/06 12:11:20;;;;;;;12.60;9.07;;;10.10;99.90;;;;;;5035782;28;20117;-84
2021/11/06 12:13:49;;;;;;;11.68;9.00;;;9.70;99.90;;;;;;5034498;28;20025;-85
2021/11/06 12:16:18;;;;;;;11.48;8.85;;;10.30;99.90;;;;;;5034848;28;20057;-85
2021/11/06 12:18:44;;;;;;;12.15;9.25;;;10.10;99.90;;;;;;5033951;28;20105;-84
2021/11/06 12:21:16;;;;;;;10.50;8.25;;;10.00;99.90;;;;;;5034576;28;20032;-84
2021/11/06 12:23:43;;;;;;;11.85;9.90;;;9.90;99.90;;;;;;5015486;28;20022;-85
2021/11/06 12:26:18;;;;;;;11.18;9.27;;;9.70;99.90;;;;;;5044434;28;20041;-82
2021/11/06 12:28:45;;;;;;;9.90;8.30;;;9.70;99.90;;;;;;5033787;28;20034;-84
2021/11/06 12:31:23;;;;;;;10.95;8.65;;;10.10;99.90;;;;;;5035388;28;20052;-84
2021/11/06 12:33:49;;;;;;;10.18;9.05;;;10.30;99.90;;;;;;5035045;28;20029;-84
2021/11/06 12:36:20;;;;;;;11.85;8.77;;;10.30;99.90;;;;;;5034720;28;20075;-84
2021/11/06 12:38:46;;;;;;;11.55;9.63;;;10.30;99.90;;;;;;5031107;28;20041;-84
2021/11/06 12:41:12;;;;;;;11.15;9.63;;;9.70;99.90;;;;;;5037203;28;20067;-87
2021/11/06 12:43:51;;;;;;;11.93;9.68;;;9.60;99.90;;;;;;5035236;28;20091;-84
2021/11/06 12:46:26;;;;;;;12.27;9.75;;;9.70;99.90;;;;;;5034849;28;20044;-84